Time;durP1;ratioP1;P1;durP2;ratioP2;P2;SDS_P1;SDS_P2;PMS_P1;PMS_P2;Temp;Humidity;BMP_temperature;BMP_pressure;BME280_temperature;BME280_humidity;BME280_pressure;Samples;Min_cycle;Max_cycle;Signal;HPM_P1;HPM_P2
2023/10/22 00:01:10;;;;;;;2.00;0.70;;;;;;;;;;5056770;28;20450;-75
2023/10/22 00:03:39;;;;;;;2.87;0.80;;;;;;;;;;5056474;28;20908;-75
2023/10/22 00:06:06;;;;;;;2.27;1.00;;;;;;;;;;5056313;28;20437;-75
2023/10/22 00:08:33;;;;;;;1.90;0.83;;;;;;;;;;5056675;28;20473;-76
2023/10/22 00:11:01;;;;;;;1.90;0.90;;;;;;;;;;5056789;28;20875;-76
2023/10/22 00:13:28;;;;;;;2.53;0.90;;;;;;;;;;5056754;28;20487;-76
2023/10/22 00:15:56;;;;;;;1.90;0.70;;;;;;;;;;5056230;28;20488;-75
2023/10/22 00:18:23;;;;;;;1.90;0.80;;;;;;;;;;5056522;28;20445;-76
2023/10/22 00:20:52;;;;;;;2.67;0.90;;;;;;;;;;5056400;28;20437;-76
2023/10/22 00:23:19;;;;;;;1.80;0.70;;;;;;;;;;5056180;28;20499;-76
2023/10/22 00:25:46;;;;;;;1.70;0.70;;;;;;;;;;5056347;28;20525;-75
2023/10/22 00:28:14;;;;;;;2.93;0.83;;;;;;;;;;5056078;28;20491;-76
2023/10/22 00:30:41;;;;;;;2.57;1.00;;;;;;;;;;5056364;28;20765;-75
2023/10/22 00:33:08;;;;;;;1.70;0.70;;;;;;;;;;5056376;28;20453;-76
2023/10/22 00:35:35;;;;;;;1.77;0.73;;;;;;;;;;5055670;28;20441;-76
2023/10/22 00:38:04;;;;;;;1.80;0.70;;;;;;;;;;5056211;28;20842;-75
2023/10/22 00:40:31;;;;;;;1.80;0.70;;;;;;;;;;5056261;28;20444;-76
2023/10/22 00:42:58;;;;;;;1.90;0.80;;;;;;;;;;5055705;28;20491;-76
2023/10/22 00:45:26;;;;;;;1.90;1.00;;;;;;;;;;5056305;28;20581;-76
2023/10/22 00:47:53;;;;;;;2.63;0.80;;;;;;;;;;5055726;28;20469;-76
2023/10/22 00:50:20;;;;;;;2.93;0.90;;;;;;;;;;5055603;28;20849;-76
2023/10/22 00:52:47;;;;;;;2.10;1.00;;;;;;;;;;5055962;28;20476;-76
2023/10/22 00:55:16;;;;;;;2.20;1.27;;;;;;;;;;5055557;28;20491;-76
2023/10/22 00:57:44;;;;;;;1.90;0.80;;;;;;;;;;5054358;28;20542;-76
2023/10/22 01:00:11;;;;;;;1.93;0.90;;;;;;;;;;5055665;28;20923;-76
2023/10/22 01:02:38;;;;;;;2.83;1.10;;;;;;;;;;5055620;28;20444;-76
2023/10/22 01:05:06;;;;;;;2.10;1.00;;;;;;;;;;5055330;28;20850;-76
2023/10/22 01:07:34;;;;;;;2.20;0.90;;;;;;;;;;5055265;28;20932;-76
2023/10/22 01:10:01;;;;;;;2.00;1.00;;;;;;;;;;5055756;28;20441;-76
2023/10/22 01:12:37;;;;;;;1.90;1.00;;;;;;;;;;5055243;28;21041;-76
2023/10/22 01:15:06;;;;;;;2.03;0.90;;;;;;;;;;5055183;28;20500;-76
2023/10/22 01:17:33;;;;;;;1.80;0.70;;;;;;;;;;5055325;28;20445;-76
2023/10/22 01:20:00;;;;;;;1.90;0.90;;;;;;;;;;5054937;28;20441;-76
2023/10/22 01:22:27;;;;;;;2.40;0.90;;;;;;;;;;5055356;28;20226;-76
2023/10/22 01:24:56;;;;;;;1.77;0.67;;;;;;;;;;5055259;28;20486;-76
2023/10/22 01:27:23;;;;;;;2.30;0.73;;;;;;;;;;5054951;28;20461;-76
2023/10/22 01:29:50;;;;;;;2.37;0.90;;;;;;;;;;5055353;28;20457;-76
2023/10/22 01:32:18;;;;;;;1.97;0.87;;;;;;;;;;5054777;28;20538;-76
2023/10/22 01:34:45;;;;;;;2.63;0.80;;;;;;;;;;5054640;28;20505;-76
2023/10/22 01:37:12;;;;;;;2.60;0.93;;;;;;;;;;5055002;28;20441;-76
2023/10/22 01:39:39;;;;;;;2.17;0.80;;;;;;;;;;5052422;28;20850;-76
2023/10/22 01:42:08;;;;;;;2.83;0.90;;;;;;;;;;5039869;28;20433;-76
2023/10/22 01:44:36;;;;;;;1.80;0.73;;;;;;;;;;5054341;28;20473;-76
2023/10/22 01:47:03;;;;;;;1.83;0.77;;;;;;;;;;5054961;28;20441;-76
2023/10/22 01:49:30;;;;;;;1.80;0.60;;;;;;;;;;5054547;28;20495;-76
2023/10/22 01:51:58;;;;;;;2.23;1.00;;;;;;;;;;5054473;28;20590;-76
2023/10/22 01:54:25;;;;;;;2.40;0.93;;;;;;;;;;5054356;28;20437;-77
2023/10/22 01:56:52;;;;;;;2.13;0.87;;;;;;;;;;5054412;28;20511;-76
2023/10/22 01:59:21;;;;;;;1.80;0.70;;;;;;;;;;5053778;28;20477;-76
2023/10/22 02:01:48;;;;;;;1.90;0.80;;;;;;;;;;5034440;28;20447;-76
2023/10/22 02:04:15;;;;;;;4.97;1.07;;;;;;;;;;5034236;28;20493;-77
2023/10/22 02:06:43;;;;;;;2.20;0.90;;;;;;;;;;5053055;28;20438;-76
2023/10/22 02:09:10;;;;;;;2.50;0.90;;;;;;;;;;5053326;28;20433;-76
2023/10/22 02:11:37;;;;;;;2.10;1.03;;;;;;;;;;5052370;28;20469;-77
2023/10/22 02:14:05;;;;;;;1.93;0.87;;;;;;;;;;5053819;28;20543;-77
2023/10/22 02:16:33;;;;;;;1.80;0.70;;;;;;;;;;5054040;28;20443;-76
2023/10/22 02:19:01;;;;;;;2.57;0.93;;;;;;;;;;5034053;28;20466;-76
2023/10/22 02:21:28;;;;;;;1.90;0.70;;;;;;;;;;5050156;28;20520;-76
2023/10/22 02:23:55;;;;;;;2.00;0.90;;;;;;;;;;5053597;28;20433;-77
2023/10/22 02:26:23;;;;;;;2.20;0.90;;;;;;;;;;5053885;28;20484;-77
2023/10/22 02:28:50;;;;;;;2.47;0.90;;;;;;;;;;5053926;28;20433;-77
2023/10/22 02:31:17;;;;;;;2.58;1.17;;;;;;;;;;5053405;28;20438;-78
2023/10/22 02:33:46;;;;;;;2.10;0.90;;;;;;;;;;5053842;28;20226;-77
2023/10/22 02:36:13;;;;;;;3.23;1.00;;;;;;;;;;5053412;28;20944;-77
2023/10/22 02:38:40;;;;;;;2.75;1.00;;;;;;;;;;5053773;28;20434;-77
2023/10/22 02:41:08;;;;;;;3.00;0.83;;;;;;;;;;5053286;28;20642;-76
2023/10/22 02:43:35;;;;;;;2.10;1.03;;;;;;;;;;5053284;28;20471;-77
2023/10/22 02:46:02;;;;;;;2.53;0.93;;;;;;;;;;5053304;28;21300;-77
2023/10/22 02:48:29;;;;;;;3.37;1.23;;;;;;;;;;5053222;28;20461;-77
2023/10/22 02:50:58;;;;;;;3.22;1.38;;;;;;;;;;5053169;28;20507;-77
2023/10/22 02:53:25;;;;;;;1.80;0.80;;;;;;;;;;5052576;28;20250;-77
2023/10/22 02:56:00;;;;;;;4.37;0.70;;;;;;;;;;5053530;28;20447;-77
2023/10/22 02:58:28;;;;;;;1.67;0.60;;;;;;;;;;5053755;28;20491;-77
2023/10/22 03:00:56;;;;;;;2.00;0.90;;;;;;;;;;5053686;28;20560;-77
2023/10/22 03:03:23;;;;;;;2.10;0.70;;;;;;;;;;5053222;28;20451;-77
2023/10/22 03:05:51;;;;;;;2.63;0.90;;;;;;;;;;5053025;28;20450;-76
2023/10/22 03:08:19;;;;;;;2.57;0.97;;;;;;;;;;5053162;28;20446;-76
2023/10/22 03:10:47;;;;;;;1.93;0.90;;;;;;;;;;5053110;28;20966;-76
2023/10/22 03:13:15;;;;;;;2.10;0.70;;;;;;;;;;5053017;28;20465;-76
2023/10/22 03:15:42;;;;;;;2.10;0.87;;;;;;;;;;5053120;28;20195;-76
2023/10/22 03:18:10;;;;;;;2.47;0.90;;;;;;;;;;5053517;28;20449;-76
2023/10/22 03:20:37;;;;;;;1.70;0.80;;;;;;;;;;5052688;28;20436;-76
2023/10/22 03:23:06;;;;;;;2.20;1.10;;;;;;;;;;5053245;28;20465;-76
2023/10/22 03:25:37;;;;;;;2.27;1.13;;;;;;;;;;5052742;28;20806;-76
2023/10/22 03:28:04;;;;;;;2.00;0.73;;;;;;;;;;5053095;28;20417;-76
2023/10/22 03:30:33;;;;;;;2.30;0.90;;;;;;;;;;5053691;28;20541;-76
2023/10/22 03:33:00;;;;;;;3.30;1.33;;;;;;;;;;5053081;28;20558;-76
2023/10/22 03:35:28;;;;;;;2.27;1.07;;;;;;;;;;5053029;28;20827;-76
2023/10/22 03:37:55;;;;;;;3.60;0.90;;;;;;;;;;5052923;28;20445;-76
2023/10/22 03:40:23;;;;;;;2.83;1.53;;;;;;;;;;5052830;28;20449;-76
2023/10/22 03:42:51;;;;;;;2.20;1.00;;;;;;;;;;5052820;28;20487;-76
2023/10/22 03:45:19;;;;;;;2.15;1.02;;;;;;;;;;5052851;28;20437;-76
2023/10/22 03:47:46;;;;;;;2.00;1.10;;;;;;;;;;5052895;28;20245;-76
2023/10/22 03:50:14;;;;;;;2.20;1.00;;;;;;;;;;5053346;28;20183;-76
2023/10/22 03:52:41;;;;;;;5.40;1.58;;;;;;;;;;5053021;28;20469;-76
2023/10/22 03:55:09;;;;;;;2.10;1.10;;;;;;;;;;5052671;28;20649;-77
2023/10/22 03:57:37;;;;;;;2.23;1.10;;;;;;;;;;5052959;28;20291;-77
2023/10/22 04:00:07;;;;;;;2.50;0.90;;;;;;;;;;5052603;28;20444;-77
2023/10/22 04:02:35;;;;;;;1.75;0.70;;;;;;;;;;5053139;28;20175;-77
2023/10/22 04:05:03;;;;;;;2.20;1.00;;;;;;;;;;5052869;28;20199;-77
2023/10/22 04:07:31;;;;;;;2.60;1.00;;;;;;;;;;5052500;28;20195;-77
2023/10/22 04:09:58;;;;;;;2.10;0.90;;;;;;;;;;5052916;28;20199;-77
2023/10/22 04:12:26;;;;;;;1.90;0.77;;;;;;;;;;5052366;28;20213;-77
2023/10/22 04:14:53;;;;;;;2.00;0.90;;;;;;;;;;5052453;28;20800;-77
2023/10/22 04:17:22;;;;;;;2.00;0.73;;;;;;;;;;5052253;28;20499;-77
2023/10/22 04:19:50;;;;;;;4.07;1.33;;;;;;;;;;5052718;28;20461;-77
2023/10/22 04:22:17;;;;;;;1.70;0.70;;;;;;;;;;5052727;28;20437;-77
2023/10/22 04:24:45;;;;;;;2.83;0.80;;;;;;;;;;5052332;28;20198;-77
2023/10/22 04:27:13;;;;;;;2.20;1.10;;;;;;;;;;5052341;28;20450;-77
2023/10/22 04:29:42;;;;;;;2.70;1.20;;;;;;;;;;5052291;28;20455;-77
2023/10/22 04:32:10;;;;;;;2.30;1.00;;;;;;;;;;5053310;28;20623;-76
2023/10/22 04:34:40;;;;;;;2.53;1.10;;;;;;;;;;5055215;28;20433;-76
2023/10/22 04:37:09;;;;;;;3.10;1.50;;;;;;;;;;5055831;28;20708;-76
2023/10/22 04:39:37;;;;;;;3.30;1.90;;;;;;;;;;5056394;28;20441;-77
2023/10/22 04:42:04;;;;;;;2.20;1.20;;;;;;;;;;5056132;28;20437;-77
2023/10/22 04:44:32;;;;;;;2.40;1.47;;;;;;;;;;5056151;28;20453;-76
2023/10/22 04:47:00;;;;;;;2.75;1.27;;;;;;;;;;5055455;28;20445;-77
2023/10/22 04:49:30;;;;;;;2.70;1.10;;;;;;;;;;5055655;28;20226;-76
2023/10/22 04:51:59;;;;;;;2.85;1.30;;;;;;;;;;5055872;28;20179;-76
2023/10/22 04:54:27;;;;;;;2.53;1.10;;;;;;;;;;5055681;28;20305;-76
2023/10/22 04:56:54;;;;;;;5.07;1.33;;;;;;;;;;5055631;28;20222;-76
2023/10/22 04:59:22;;;;;;;2.30;1.07;;;;;;;;;;5056032;28;20298;-77
2023/10/22 05:01:49;;;;;;;2.60;1.30;;;;;;;;;;5055455;28;20446;-77
2023/10/22 05:04:17;;;;;;;2.00;1.00;;;;;;;;;;5055340;28;20524;-77
2023/10/22 05:06:44;;;;;;;2.97;1.00;;;;;;;;;;5055360;28;20217;-77
2023/10/22 05:09:13;;;;;;;2.20;1.00;;;;;;;;;;5055283;28;20438;-76
2023/10/22 05:11:41;;;;;;;2.20;1.10;;;;;;;;;;5055372;28;20195;-77
2023/10/22 05:14:08;;;;;;;2.80;1.23;;;;;;;;;;5055247;28;20214;-77
2023/10/22 05:16:36;;;;;;;2.27;1.00;;;;;;;;;;5055158;28;20282;-77
2023/10/22 05:19:03;;;;;;;2.20;1.00;;;;;;;;;;5055072;28;20429;-77
2023/10/22 05:21:31;;;;;;;2.53;1.27;;;;;;;;;;5055445;28;20434;-76
2023/10/22 05:23:58;;;;;;;3.40;1.67;;;;;;;;;;5054974;28;20289;-77
2023/10/22 05:26:27;;;;;;;5.53;2.58;;;;;;;;;;5054515;28;20429;-76
2023/10/22 05:28:55;;;;;;;7.05;2.85;;;;;;;;;;5055351;28;20277;-77
2023/10/22 05:31:23;;;;;;;7.10;3.90;;;;;;;;;;5055204;28;20191;-77
2023/10/22 05:33:50;;;;;;;5.18;2.05;;;;;;;;;;5054716;28;20514;-76
2023/10/22 05:36:18;;;;;;;3.50;1.65;;;;;;;;;;5054963;28;20278;-77
2023/10/22 05:38:47;;;;;;;4.78;1.73;;;;;;;;;;5054699;28;20186;-77
2023/10/22 05:41:18;;;;;;;2.78;1.50;;;;;;;;;;5054382;28;20195;-77
2023/10/22 05:43:47;;;;;;;2.83;1.20;;;;;;;;;;5054852;28;20187;-76
2023/10/22 05:46:14;;;;;;;2.05;1.02;;;;;;;;;;5054557;28;20441;-77
2023/10/22 05:48:42;;;;;;;2.92;1.35;;;;;;;;;;5054358;28;20222;-76
2023/10/22 05:51:09;;;;;;;3.13;1.20;;;;;;;;;;5054259;28;20186;-77
2023/10/22 05:53:37;;;;;;;3.07;1.10;;;;;;;;;;5054417;28;20511;-77
2023/10/22 05:56:04;;;;;;;2.60;1.75;;;;;;;;;;5054399;28;20947;-76
2023/10/22 05:58:33;;;;;;;3.20;1.05;;;;;;;;;;5052922;28;20190;-77
2023/10/22 06:01:02;;;;;;;2.90;1.10;;;;;;;;;;5053769;28;20197;-77
2023/10/22 06:03:30;;;;;;;2.67;1.30;;;;;;;;;;5053904;28;20281;-77
2023/10/22 06:05:57;;;;;;;3.30;1.27;;;;;;;;;;5053240;28;20252;-77
2023/10/22 06:08:25;;;;;;;2.20;1.13;;;;;;;;;;5052994;28;20179;-77
2023/10/22 06:10:53;;;;;;;2.40;1.20;;;;;;;;;;5053393;28;20217;-77
2023/10/22 06:13:22;;;;;;;3.15;2.17;;;;;;;;;;5053541;28;20534;-76
2023/10/22 06:15:50;;;;;;;4.33;2.50;;;;;;;;;;5053544;28;20199;-76
2023/10/22 06:18:19;;;;;;;2.70;1.35;;;;;;;;;;5053182;28;20474;-76
2023/10/22 06:20:46;;;;;;;3.47;1.80;;;;;;;;;;5053375;28;20249;-76
2023/10/22 06:23:14;;;;;;;2.57;2.00;;;;;;;;;;5053132;28;20441;-76
2023/10/22 06:25:44;;;;;;;3.30;1.60;;;;;;;;;;5052646;28;20473;-76
2023/10/22 06:28:12;;;;;;;3.40;1.70;;;;;;;;;;5053270;28;20473;-76
2023/10/22 06:30:40;;;;;;;3.03;1.40;;;;;;;;;;5053292;28;20555;-76
2023/10/22 06:33:08;;;;;;;2.57;1.63;;;;;;;;;;5052864;28;20473;-76
2023/10/22 06:35:37;;;;;;;3.33;1.75;;;;;;;;;;5052806;28;20491;-76
2023/10/22 06:38:04;;;;;;;2.60;1.15;;;;;;;;;;5052520;28;20187;-76
2023/10/22 06:40:32;;;;;;;2.60;1.20;;;;;;;;;;5052578;28;20278;-76
2023/10/22 06:42:59;;;;;;;2.87;1.00;;;;;;;;;;5053100;28;20441;-76
2023/10/22 06:45:27;;;;;;;2.65;1.63;;;;;;;;;;5052892;28;20465;-76
2023/10/22 06:47:56;;;;;;;3.97;1.60;;;;;;;;;;5052792;28;20250;-76
2023/10/22 06:50:23;;;;;;;7.20;1.93;;;;;;;;;;5052119;28;20491;-76
2023/10/22 06:52:52;;;;;;;4.23;2.97;;;;;;;;;;5052530;28;20912;-76
2023/10/22 06:55:20;;;;;;;2.80;1.90;;;;;;;;;;5051611;28;20924;-76
2023/10/22 06:57:48;;;;;;;3.60;1.80;;;;;;;;;;5052893;28;20866;-77
2023/10/22 07:00:16;;;;;;;4.27;1.50;;;;;;;;;;5052487;28;20516;-77
2023/10/22 07:02:45;;;;;;;2.90;1.30;;;;;;;;;;5052705;28;20437;-77
2023/10/22 07:05:13;;;;;;;3.50;1.60;;;;;;;;;;5052977;28;20544;-77
2023/10/22 07:07:43;;;;;;;3.00;1.23;;;;;;;;;;5052740;28;20833;-77
2023/10/22 07:10:12;;;;;;;2.53;1.10;;;;;;;;;;5052193;28;20539;-77
2023/10/22 07:12:40;;;;;;;3.60;1.37;;;;;;;;;;5052397;28;20459;-77
2023/10/22 07:15:09;;;;;;;2.93;1.50;;;;;;;;;;5051844;28;20473;-77
2023/10/22 07:17:36;;;;;;;3.87;0.93;;;;;;;;;;5032384;28;20458;-77
2023/10/22 07:20:05;;;;;;;2.27;1.00;;;;;;;;;;5032241;28;20479;-77
2023/10/22 07:22:32;;;;;;;2.23;1.07;;;;;;;;;;5032664;28;20460;-77
2023/10/22 07:25:00;;;;;;;2.20;1.00;;;;;;;;;;5032377;28;20446;-77
2023/10/22 07:27:29;;;;;;;8.70;4.90;;;;;;;;;;5033003;28;20470;-77
2023/10/22 07:29:56;;;;;;;5.00;2.33;;;;;;;;;;5052296;28;20809;-77
2023/10/22 07:32:24;;;;;;;3.70;1.50;;;;;;;;;;5044002;28;20438;-77
2023/10/22 07:34:51;;;;;;;4.50;3.43;;;;;;;;;;5032340;28;20509;-76
2023/10/22 07:37:19;;;;;;;5.03;2.73;;;;;;;;;;5051170;28;20433;-77
2023/10/22 07:39:46;;;;;;;10.63;2.10;;;;;;;;;;5051280;28;20441;-77
2023/10/22 07:42:14;;;;;;;2.70;1.50;;;;;;;;;;5051552;28;20437;-77
2023/10/22 07:44:43;;;;;;;2.53;1.30;;;;;;;;;;5050833;28;20437;-77
2023/10/22 07:47:11;;;;;;;2.17;1.03;;;;;;;;;;5051594;28;20532;-77
2023/10/22 07:49:38;;;;;;;2.67;1.30;;;;;;;;;;5052670;28;20462;-77
2023/10/22 07:52:06;;;;;;;2.20;1.00;;;;;;;;;;5051908;28;20465;-78
2023/10/22 07:54:34;;;;;;;2.10;1.20;;;;;;;;;;5051104;28;20484;-78
2023/10/22 07:57:01;;;;;;;2.70;1.20;;;;;;;;;;5051959;28;20525;-78
2023/10/22 07:59:29;;;;;;;2.40;1.20;;;;;;;;;;5052249;28;20471;-77
2023/10/22 08:01:58;;;;;;;3.10;1.37;;;;;;;;;;5051966;28;20440;-77
2023/10/22 08:04:25;;;;;;;2.43;1.37;;;;;;;;;;5052102;28;20437;-77
2023/10/22 08:06:53;;;;;;;4.00;1.60;;;;;;;;;;5053159;28;20429;-78
2023/10/22 08:09:20;;;;;;;2.57;0.90;;;;;;;;;;5055630;28;20441;-78
2023/10/22 08:11:48;;;;;;;2.03;0.77;;;;;;;;;;5055915;28;20482;-77
2023/10/22 08:14:15;;;;;;;2.30;1.10;;;;;;;;;;5055389;28;20560;-78
2023/10/22 08:16:43;;;;;;;2.23;1.00;;;;;;;;;;5055843;28;20441;-78
2023/10/22 08:19:11;;;;;;;2.27;1.20;;;;;;;;;;5054933;28;20943;-78
2023/10/22 08:21:41;;;;;;;3.50;1.20;;;;;;;;;;5054884;28;20448;-78
2023/10/22 08:24:09;;;;;;;2.17;1.10;;;;;;;;;;5055607;28;20437;-78
2023/10/22 08:26:37;;;;;;;3.53;1.87;;;;;;;;;;5055479;28;20437;-78
2023/10/22 08:29:04;;;;;;;4.90;1.60;;;;;;;;;;5055823;28;20441;-78
2023/10/22 08:31:39;;;;;;;3.03;1.80;;;;;;;;;;5055527;28;20440;-80
2023/10/22 08:34:07;;;;;;;3.00;1.07;;;;;;;;;;5055275;28;20468;-80
2023/10/22 08:36:36;;;;;;;2.67;1.17;;;;;;;;;;5055017;28;20429;-80
2023/10/22 08:39:04;;;;;;;2.60;0.90;;;;;;;;;;5055091;28;20414;-80
2023/10/22 08:41:35;;;;;;;4.00;1.20;;;;;;;;;;5054986;28;20439;-81
2023/10/22 08:44:03;;;;;;;2.53;0.60;;;;;;;;;;5054830;28;20429;-80
2023/10/22 08:46:31;;;;;;;2.93;0.90;;;;;;;;;;5055037;28;20437;-80
2023/10/22 08:48:58;;;;;;;2.20;1.03;;;;;;;;;;5055231;28;20571;-80
2023/10/22 08:51:26;;;;;;;2.07;0.83;;;;;;;;;;5052116;28;20520;-80
2023/10/22 08:53:55;;;;;;;2.53;0.63;;;;;;;;;;5054489;28;20564;-81
2023/10/22 08:56:23;;;;;;;2.20;0.70;;;;;;;;;;5054733;28;20436;-81
2023/10/22 08:58:51;;;;;;;2.30;1.10;;;;;;;;;;5054426;28;20439;-81
2023/10/22 09:01:19;;;;;;;2.83;1.07;;;;;;;;;;5055173;28;20503;-80
2023/10/22 09:03:46;;;;;;;2.30;0.90;;;;;;;;;;5053896;28;20464;-80
2023/10/22 09:06:13;;;;;;;2.40;0.93;;;;;;;;;;5054447;28;20433;-80
2023/10/22 09:08:45;;;;;;;2.30;0.87;;;;;;;;;;5054152;28;20421;-78
2023/10/22 09:11:17;;;;;;;3.40;1.13;;;;;;;;;;5054304;28;20456;-78
2023/10/22 09:13:45;;;;;;;3.30;0.90;;;;;;;;;;5053935;28;20448;-79
2023/10/22 09:16:28;;;;;;;2.43;0.90;;;;;;;;;;5054576;28;20429;-78
2023/10/22 09:18:55;;;;;;;2.20;0.80;;;;;;;;;;5053226;28;20487;-79
2023/10/22 09:21:35;;;;;;;2.37;1.00;;;;;;;;;;5054537;28;20472;-80
2023/10/22 09:24:06;;;;;;;3.80;1.00;;;;;;;;;;5054292;28;20464;-79
2023/10/22 09:26:50;;;;;;;2.60;0.93;;;;;;;;;;5054564;28;20490;-80
2023/10/22 09:29:18;;;;;;;2.77;1.10;;;;;;;;;;5053827;28;20453;-79
2023/10/22 09:31:50;;;;;;;2.23;0.90;;;;;;;;;;5054412;28;20512;-80
2023/10/22 09:34:27;;;;;;;2.40;0.90;;;;;;;;;;5053893;28;20425;-80
2023/10/22 09:36:55;;;;;;;2.80;0.87;;;;;;;;;;5053462;28;20977;-79
2023/10/22 09:39:35;;;;;;;2.87;1.63;;;;;;;;;;5053825;28;20830;-79
2023/10/22 09:42:05;;;;;;;2.50;1.30;;;;;;;;;;5053402;28;20491;-80
2023/10/22 09:44:33;;;;;;;2.80;1.33;;;;;;;;;;5053983;28;20558;-79
2023/10/22 09:47:02;;;;;;;1.90;0.77;;;;;;;;;;5053741;28;20441;-79
2023/10/22 09:49:30;;;;;;;8.20;7.20;;;;;;;;;;5052946;28;20552;-80
2023/10/22 09:52:00;;;;;;;3.33;1.07;;;;;;;;;;5053478;28;20619;-79
2023/10/22 09:54:33;;;;;;;4.20;3.07;;;;;;;;;;5053478;28;20428;-80
2023/10/22 09:57:07;;;;;;;3.03;1.70;;;;;;;;;;5053552;28;20479;-80
2023/10/22 09:59:36;;;;;;;2.80;1.03;;;;;;;;;;5053416;28;20446;-80
2023/10/22 10:02:05;;;;;;;2.30;0.70;;;;;;;;;;5053378;28;20943;-80
2023/10/22 10:04:35;;;;;;;2.57;1.00;;;;;;;;;;5053440;28;20480;-80
2023/10/22 10:07:05;;;;;;;3.33;2.40;;;;;;;;;;5053498;28;20441;-80
2023/10/22 10:09:33;;;;;;;3.63;1.83;;;;;;;;;;5050727;28;20452;-80
2023/10/22 10:12:02;;;;;;;6.67;6.07;;;;;;;;;;5053311;28;20441;-80
2023/10/22 10:14:42;;;;;;;2.10;0.80;;;;;;;;;;5053209;28;20476;-80
2023/10/22 10:17:10;;;;;;;2.53;1.30;;;;;;;;;;5053082;28;20938;-80
2023/10/22 10:19:38;;;;;;;6.53;1.77;;;;;;;;;;5051618;28;20449;-80
2023/10/22 10:22:08;;;;;;;3.53;2.23;;;;;;;;;;5052388;28;20437;-79
2023/10/22 10:24:36;;;;;;;3.90;2.53;;;;;;;;;;5053145;28;20465;-80
2023/10/22 10:27:22;;;;;;;3.87;2.80;;;;;;;;;;5052845;28;20436;-79
2023/10/22 10:32:52;;;;;;;3.10;1.40;;;;;;;;;;5129009;27;20601;-80
2023/10/22 10:35:20;;;;;;;2.30;1.10;;;;;;;;;;5128788;28;20433;-79
2023/10/22 10:38:06;;;;;;;3.80;1.57;;;;;;;;;;5129141;28;20512;-79
2023/10/22 10:40:43;;;;;;;3.13;1.13;;;;;;;;;;5126730;28;20437;-78
2023/10/22 10:43:11;;;;;;;4.30;2.30;;;;;;;;;;5123740;27;20618;-78
2023/10/22 10:45:41;;;;;;;5.10;3.10;;;;;;;;;;5127645;28;20502;-77
2023/10/22 10:48:30;;;;;;;5.13;3.60;;;;;;;;;;5127380;28;20539;-77
2023/10/22 10:51:13;;;;;;;4.00;2.60;;;;;;;;;;5123945;28;20472;-77
2023/10/22 10:53:55;;;;;;;6.03;1.87;;;;;;;;;;5126588;28;20448;-77
2023/10/22 10:56:23;;;;;;;3.43;1.10;;;;;;;;;;5127508;28;20872;-77
2023/10/22 10:58:50;;;;;;;3.00;1.33;;;;;;;;;;5128412;28;20900;-77
2023/10/22 11:01:19;;;;;;;3.10;1.50;;;;;;;;;;5127503;28;20437;-76
2023/10/22 11:03:48;;;;;;;4.03;2.50;;;;;;;;;;5127896;28;20440;-77
2023/10/22 11:06:17;;;;;;;3.97;2.30;;;;;;;;;;5127405;28;20834;-76
2023/10/22 11:08:47;;;;;;;2.47;0.60;;;;;;;;;;5127001;28;20442;-77
2023/10/22 11:11:15;;;;;;;2.13;0.80;;;;;;;;;;5125448;28;20887;-76
2023/10/22 11:13:43;;;;;;;2.73;0.70;;;;;;;;;;5125674;28;20445;-76
2023/10/22 11:16:11;;;;;;;2.10;0.70;;;;;;;;;;5127832;28;20435;-77
2023/10/22 11:21:39;;;;;;;3.43;1.57;;;;;;;;;;5106682;27;20557;-78
2023/10/22 11:24:07;;;;;;;3.90;1.30;;;;;;;;;;5105424;28;20969;-78
2023/10/22 11:26:34;;;;;;;3.10;1.30;;;;;;;;;;5107116;28;20431;-77
2023/10/22 11:29:04;;;;;;;4.17;1.50;;;;;;;;;;5106552;28;20462;-77
2023/10/22 11:31:31;;;;;;;7.40;3.90;;;;;;;;;;5107138;28;20479;-77
2023/10/22 11:34:13;;;;;;;5.80;1.50;;;;;;;;;;5106726;28;20781;-77
2023/10/22 11:36:42;;;;;;;3.20;1.70;;;;;;;;;;5104784;28;20438;-77
2023/10/22 11:39:17;;;;;;;2.93;0.93;;;;;;;;;;5108251;28;20431;-77
2023/10/22 11:41:45;;;;;;;4.40;1.90;;;;;;;;;;5104877;28;20441;-76
2023/10/22 11:44:28;;;;;;;3.70;1.17;;;;;;;;;;5108026;28;20443;-76
2023/10/22 11:46:55;;;;;;;3.20;1.10;;;;;;;;;;5106596;28;20446;-77
2023/10/22 11:49:23;;;;;;;8.60;5.90;;;;;;;;;;5107670;28;20447;-77
2023/10/22 11:51:53;;;;;;;2.70;1.10;;;;;;;;;;5107519;28;20775;-77
2023/10/22 11:54:21;;;;;;;3.70;1.20;;;;;;;;;;5107144;28;20487;-77
2023/10/22 11:56:48;;;;;;;3.23;1.53;;;;;;;;;;5106832;28;20474;-77
2023/10/22 11:59:19;;;;;;;2.47;0.87;;;;;;;;;;5107670;28;20433;-78
2023/10/22 12:01:46;;;;;;;2.30;0.80;;;;;;;;;;5107054;28;20446;-78
2023/10/22 12:04:14;;;;;;;3.10;1.00;;;;;;;;;;5108164;28;20530;-79
2023/10/22 12:06:41;;;;;;;2.30;0.80;;;;;;;;;;5105488;28;20478;-78
2023/10/22 12:09:11;;;;;;;3.50;0.87;;;;;;;;;;5107463;28;20459;-78
2023/10/22 12:11:38;;;;;;;2.80;0.80;;;;;;;;;;5107881;28;20523;-78
2023/10/22 12:14:09;;;;;;;2.37;0.70;;;;;;;;;;5107653;28;22371;-77
2023/10/22 12:16:37;;;;;;;4.20;1.33;;;;;;;;;;5107551;28;20448;-77
2023/10/22 12:19:05;;;;;;;3.70;1.03;;;;;;;;;;5107061;28;20441;-77
2023/10/22 12:21:33;;;;;;;2.40;0.90;;;;;;;;;;5107080;28;20493;-77
2023/10/22 12:24:00;;;;;;;2.43;0.90;;;;;;;;;;5106368;28;20517;-77
2023/10/22 12:26:29;;;;;;;2.30;0.90;;;;;;;;;;5106625;28;20985;-77
2023/10/22 12:28:57;;;;;;;3.10;1.00;;;;;;;;;;5105111;28;20442;-77
2023/10/22 12:31:27;;;;;;;3.37;1.40;;;;;;;;;;5101951;28;20522;-77
2023/10/22 12:33:55;;;;;;;2.30;0.70;;;;;;;;;;5093396;28;20445;-78
2023/10/22 12:36:22;;;;;;;2.30;0.60;;;;;;;;;;5093126;28;20445;-77
2023/10/22 12:38:50;;;;;;;2.73;0.80;;;;;;;;;;5093419;28;20449;-77
2023/10/22 12:41:20;;;;;;;2.60;0.80;;;;;;;;;;5092999;28;20474;-79
2023/10/22 12:43:49;;;;;;;2.57;0.87;;;;;;;;;;5093061;28;20475;-78
2023/10/22 12:46:18;;;;;;;2.43;0.73;;;;;;;;;;5089520;28;20431;-78
2023/10/22 12:48:45;;;;;;;2.87;1.20;;;;;;;;;;5091027;28;20455;-78
2023/10/22 12:51:13;;;;;;;5.20;1.30;;;;;;;;;;5093179;28;20522;-78
2023/10/22 12:53:43;;;;;;;3.50;1.80;;;;;;;;;;5092478;28;20443;-77
2023/10/22 12:56:13;;;;;;;3.53;1.10;;;;;;;;;;5093381;28;20450;-77
2023/10/22 12:58:41;;;;;;;2.20;0.70;;;;;;;;;;5093300;28;20439;-78
2023/10/22 13:01:10;;;;;;;3.23;0.80;;;;;;;;;;5091705;28;20475;-78
2023/10/22 13:03:44;;;;;;;4.07;1.67;;;;;;;;;;5092086;28;20454;-78
2023/10/22 13:06:11;;;;;;;6.97;4.70;;;;;;;;;;5092762;28;20453;-78
2023/10/22 13:08:39;;;;;;;5.37;3.77;;;;;;;;;;5093057;28;20442;-80
2023/10/22 13:11:06;;;;;;;3.30;1.20;;;;;;;;;;5092895;28;20443;-77
2023/10/22 13:13:36;;;;;;;2.10;0.80;;;;;;;;;;5089307;28;20522;-77
2023/10/22 13:16:04;;;;;;;3.97;0.93;;;;;;;;;;5092229;28;20800;-77
2023/10/22 13:18:33;;;;;;;4.60;1.10;;;;;;;;;;5089383;28;20485;-76
2023/10/22 13:21:01;;;;;;;2.40;0.97;;;;;;;;;;5091651;28;20493;-76
2023/10/22 13:23:29;;;;;;;3.50;1.67;;;;;;;;;;5090877;28;20427;-76
2023/10/22 13:25:57;;;;;;;3.20;1.30;;;;;;;;;;5092331;28;20492;-77
2023/10/22 13:28:24;;;;;;;3.53;1.40;;;;;;;;;;5088775;28;20800;-77
2023/10/22 13:30:52;;;;;;;4.70;2.10;;;;;;;;;;5090716;28;20990;-77
2023/10/22 13:33:22;;;;;;;5.33;1.60;;;;;;;;;;5090637;28;20435;-76
2023/10/22 13:36:12;;;;;;;3.80;1.13;;;;;;;;;;5091458;28;20420;-76
2023/10/22 13:38:39;;;;;;;2.30;0.90;;;;;;;;;;5091723;28;20427;-76
2023/10/22 13:41:07;;;;;;;2.63;0.90;;;;;;;;;;5091804;28;20493;-76
2023/10/22 13:43:34;;;;;;;3.00;0.70;;;;;;;;;;5090562;28;20439;-76
2023/10/22 13:46:02;;;;;;;1.90;0.60;;;;;;;;;;5091117;28;20524;-76
2023/10/22 13:48:29;;;;;;;3.50;0.83;;;;;;;;;;5091124;28;20443;-76
2023/10/22 13:50:59;;;;;;;3.30;0.80;;;;;;;;;;5088995;28;20428;-76
2023/10/22 13:53:26;;;;;;;3.80;2.40;;;;;;;;;;5090474;28;20924;-76
2023/10/22 13:56:03;;;;;;;3.60;1.17;;;;;;;;;;5091508;28;20518;-77
2023/10/22 13:58:31;;;;;;;2.60;1.00;;;;;;;;;;5090559;28;20432;-76
2023/10/22 14:00:59;;;;;;;2.63;0.73;;;;;;;;;;5091464;28;20570;-76
2023/10/22 14:03:33;;;;;;;2.87;0.60;;;;;;;;;;5091398;28;20451;-77
2023/10/22 14:06:02;;;;;;;3.60;1.30;;;;;;;;;;5092090;28;20462;-76
2023/10/22 14:08:35;;;;;;;3.60;0.90;;;;;;;;;;5091390;28;20432;-76
2023/10/22 14:11:03;;;;;;;2.90;1.10;;;;;;;;;;5088717;28;20807;-76
2023/10/22 14:13:30;;;;;;;3.20;1.30;;;;;;;;;;5090922;28;20886;-76
2023/10/22 14:16:05;;;;;;;4.17;1.90;;;;;;;;;;5090734;28;20423;-76
2023/10/22 14:18:32;;;;;;;5.50;3.00;;;;;;;;;;5089281;28;20503;-76
2023/10/22 14:21:10;;;;;;;3.00;1.40;;;;;;;;;;5087982;28;20836;-76
2023/10/22 14:23:37;;;;;;;2.83;1.00;;;;;;;;;;5087613;28;20435;-76
2023/10/22 14:26:08;;;;;;;2.73;1.23;;;;;;;;;;5089467;28;20964;-76
2023/10/22 14:28:41;;;;;;;3.57;0.93;;;;;;;;;;5090882;28;20435;-77
2023/10/22 14:31:09;;;;;;;6.03;0.90;;;;;;;;;;5088480;28;20493;-77
2023/10/22 14:33:36;;;;;;;4.20;1.40;;;;;;;;;;5089594;28;20522;-76
2023/10/22 14:36:05;;;;;;;6.43;3.50;;;;;;;;;;5090427;28;20435;-76
2023/10/22 14:38:34;;;;;;;4.10;2.00;;;;;;;;;;5090364;28;20550;-76
2023/10/22 14:41:02;;;;;;;3.30;1.23;;;;;;;;;;5090292;28;20477;-76
2023/10/22 14:43:30;;;;;;;2.40;0.90;;;;;;;;;;5089549;28;20458;-76
2023/10/22 14:46:04;;;;;;;2.83;0.90;;;;;;;;;;5090010;28;20449;-75
2023/10/22 14:48:32;;;;;;;5.23;3.97;;;;;;;;;;5091080;28;20434;-76
2023/10/22 14:51:02;;;;;;;2.90;1.10;;;;;;;;;;5089709;28;20489;-76
2023/10/22 14:53:30;;;;;;;2.90;1.30;;;;;;;;;;5086356;28;20479;-76
2023/10/22 14:56:00;;;;;;;4.77;2.30;;;;;;;;;;5090605;28;20435;-76
2023/10/22 14:58:27;;;;;;;3.90;1.37;;;;;;;;;;5090191;28;20438;-76